sensor_id;sensor_type;location;lat;lon;timestamp;pressure;altitude;pressure_sealevel;temperature;humidity
21640;BME280;10981;45.462;10.974;2024-01-30T00:01:27;102684.31;;;-2.23;100.00
21640;BME280;10981;45.462;10.974;2024-01-30T00:03:55;102678.34;;;-2.20;100.00
21640;BME280;10981;45.462;10.974;2024-01-30T00:06:24;102678.34;;;-2.22;100.00
21640;BME280;10981;45.462;10.974;2024-01-30T00:08:52;102678.34;;;-2.20;100.00
21640;BME280;10981;45.462;10.974;2024-01-30T00:11:21;102676.63;;;-2.23;100.00
21640;BME280;10981;45.462;10.974;2024-01-30T00:13:49;102678.34;;;-2.23;100.00
21640;BME280;10981;45.462;10.974;2024-01-30T00:16:24;102678.34;;;-2.20;100.00
21640;BME280;10981;45.462;10.974;2024-01-30T00:18:53;102669.81;;;-2.24;100.00
21640;BME280;10981;45.462;10.974;2024-01-30T00:21:22;102671.53;;;-2.21;100.00
21640;BME280;10981;45.462;10.974;2024-01-30T00:23:50;102673.22;;;-2.26;100.00
21640;BME280;10981;45.462;10.974;2024-01-30T00:26:18;102666.38;;;-2.27;100.00
21640;BME280;10981;45.462;10.974;2024-01-30T00:28:46;102665.53;;;-2.22;100.00
21640;BME280;10981;45.462;10.974;2024-01-30T00:31:15;102668.09;;;-2.22;100.00
21640;BME280;10981;45.462;10.974;2024-01-30T00:33:43;102672.38;;;-2.24;100.00
21640;BME280;10981;45.462;10.974;2024-01-30T00:36:11;102668.06;;;-2.30;100.00
21640;BME280;10981;45.462;10.974;2024-01-30T00:38:40;102668.91;;;-2.34;100.00
21640;BME280;10981;45.462;10.974;2024-01-30T00:41:09;102672.31;;;-2.33;100.00
21640;BME280;10981;45.462;10.974;2024-01-30T00:43:37;102679.16;;;-2.35;100.00
21640;BME280;10981;45.462;10.974;2024-01-30T00:46:06;102668.88;;;-2.41;100.00
21640;BME280;10981;45.462;10.974;2024-01-30T00:48:34;102673.13;;;-2.43;100.00
21640;BME280;10981;45.462;10.974;2024-01-30T00:51:02;102680.81;;;-2.42;100.00
21640;BME280;10981;45.462;10.974;2024-01-30T00:53:30;102674.81;;;-2.44;100.00
21640;BME280;10981;45.462;10.974;2024-01-30T00:55:58;102684.22;;;-2.46;100.00
21640;BME280;10981;45.462;10.974;2024-01-30T00:58:26;102681.63;;;-2.48;100.00
21640;BME280;10981;45.462;10.974;2024-01-30T01:00:55;102682.53;;;-2.41;100.00
21640;BME280;10981;45.462;10.974;2024-01-30T01:03:23;102681.69;;;-2.41;100.00
21640;BME280;10981;45.462;10.974;2024-01-30T01:05:51;102686.81;;;-2.41;100.00
21640;BME280;10981;45.462;10.974;2024-01-30T01:08:20;102685.09;;;-2.42;100.00
21640;BME280;10981;45.462;10.974;2024-01-30T01:10:48;102686.78;;;-2.44;100.00
21640;BME280;10981;45.462;10.974;2024-01-30T01:13:16;102692.78;;;-2.42;100.00
21640;BME280;10981;45.462;10.974;2024-01-30T01:15:45;102692.78;;;-2.42;100.00
21640;BME280;10981;45.462;10.974;2024-01-30T01:18:13;102692.78;;;-2.42;100.00
21640;BME280;10981;45.462;10.974;2024-01-30T01:20:41;102691.09;;;-2.37;100.00
21640;BME280;10981;45.462;10.974;2024-01-30T01:23:09;102692.81;;;-2.33;100.00
21640;BME280;10981;45.462;10.974;2024-01-30T01:25:37;102696.25;;;-2.31;100.00
21640;BME280;10981;45.462;10.974;2024-01-30T01:28:06;102697.09;;;-2.32;100.00
21640;BME280;10981;45.462;10.974;2024-01-30T01:30:34;102696.31;;;-2.25;100.00
21640;BME280;10981;45.462;10.974;2024-01-30T01:33:02;102698.91;;;-2.14;100.00
21640;BME280;10981;45.462;10.974;2024-01-30T01:35:31;102700.66;;;-2.07;100.00
21640;BME280;10981;45.462;10.974;2024-01-30T01:37:59;102701.50;;;-2.08;100.00
21640;BME280;10981;45.462;10.974;2024-01-30T01:40:28;102700.59;;;-2.22;100.00
21640;BME280;10981;45.462;10.974;2024-01-30T01:42:56;102697.16;;;-2.27;100.00
21640;BME280;10981;45.462;10.974;2024-01-30T01:45:25;102693.66;;;-2.36;100.00
21640;BME280;10981;45.462;10.974;2024-01-30T01:47:53;102697.84;;;-2.50;100.00
21640;BME280;10981;45.462;10.974;2024-01-30T01:50:22;102694.41;;;-2.52;100.00
21640;BME280;10981;45.462;10.974;2024-01-30T01:52:51;102696.13;;;-2.50;100.00
21640;BME280;10981;45.462;10.974;2024-01-30T01:55:21;102690.16;;;-2.49;100.00
21640;BME280;10981;45.462;10.974;2024-01-30T01:57:53;102690.16;;;-2.47;100.00
21640;BME280;10981;45.462;10.974;2024-01-30T02:00:22;102691.09;;;-2.40;100.00
21640;BME280;10981;45.462;10.974;2024-01-30T02:02:52;102690.22;;;-2.41;100.00
21640;BME280;10981;45.462;10.974;2024-01-30T02:05:22;102690.22;;;-2.44;100.00
21640;BME280;10981;45.462;10.974;2024-01-30T02:07:51;102684.19;;;-2.48;100.00
21640;BME280;10981;45.462;10.974;2024-01-30T02:10:19;102680.75;;;-2.51;100.00
21640;BME280;10981;45.462;10.974;2024-01-30T02:12:49;102678.16;;;-2.56;100.00
21640;BME280;10981;45.462;10.974;2024-01-30T02:15:17;102672.22;;;-2.53;100.00
21640;BME280;10981;45.462;10.974;2024-01-30T02:17:46;102670.50;;;-2.50;100.00
21640;BME280;10981;45.462;10.974;2024-01-30T02:20:14;102671.34;;;-2.57;100.00
21640;BME280;10981;45.462;10.974;2024-01-30T02:22:43;102670.47;;;-2.62;100.00
21640;BME280;10981;45.462;10.974;2024-01-30T02:25:12;102661.88;;;-2.64;100.00
21640;BME280;10981;45.462;10.974;2024-01-30T02:27:40;102672.94;;;-2.73;100.00
21640;BME280;10981;45.462;10.974;2024-01-30T02:30:09;102663.47;;;-2.80;100.00
21640;BME280;10981;45.462;10.974;2024-01-30T02:32:37;102669.44;;;-2.86;100.00
21640;BME280;10981;45.462;10.974;2024-01-30T02:35:05;102676.19;;;-2.94;100.00
21640;BME280;10981;45.462;10.974;2024-01-30T02:37:34;102661.66;;;-2.97;100.00
21640;BME280;10981;45.462;10.974;2024-01-30T02:40:02;102669.31;;;-3.00;100.00
21640;BME280;10981;45.462;10.974;2024-01-30T02:42:30;102670.09;;;-3.07;100.00
21640;BME280;10981;45.462;10.974;2024-01-30T02:44:59;102664.91;;;-3.18;100.00
21640;BME280;10981;45.462;10.974;2024-01-30T02:47:27;102667.41;;;-3.24;100.00
21640;BME280;10981;45.462;10.974;2024-01-30T02:49:55;102665.75;;;-3.20;100.00
21640;BME280;10981;45.462;10.974;2024-01-30T02:52:24;102664.00;;;-3.23;100.00
21640;BME280;10981;45.462;10.974;2024-01-30T02:54:52;102660.50;;;-3.33;100.00
21640;BME280;10981;45.462;10.974;2024-01-30T02:57:20;102661.31;;;-3.37;100.00
21640;BME280;10981;45.462;10.974;2024-01-30T02:59:48;102655.28;;;-3.43;100.00
21640;BME280;10981;45.462;10.974;2024-01-30T03:02:17;102654.41;;;-3.49;100.00
21640;BME280;10981;45.462;10.974;2024-01-30T03:04:45;102651.78;;;-3.53;100.00
21640;BME280;10981;45.462;10.974;2024-01-30T03:07:14;102650.88;;;-3.57;100.00
21640;BME280;10981;45.462;10.974;2024-01-30T03:09:43;102644.91;;;-3.57;100.00
21640;BME280;10981;45.462;10.974;2024-01-30T03:12:12;102652.53;;;-3.64;100.00
21640;BME280;10981;45.462;10.974;2024-01-30T03:14:40;102651.53;;;-3.76;100.00
21640;BME280;10981;45.462;10.974;2024-01-30T03:17:08;102643.75;;;-3.87;100.00
21640;BME280;10981;45.462;10.974;2024-01-30T03:19:36;102642.84;;;-3.91;100.00
21640;BME280;10981;45.462;10.974;2024-01-30T03:22:04;102642.75;;;-3.99;100.00
21640;BME280;10981;45.462;10.974;2024-01-30T03:24:33;102648.63;;;-4.07;100.00
21640;BME280;10981;45.462;10.974;2024-01-30T03:27:01;102644.28;;;-4.15;100.00
21640;BME280;10981;45.462;10.974;2024-01-30T03:29:29;102643.50;;;-4.09;100.00
21640;BME280;10981;45.462;10.974;2024-01-30T03:31:57;102635.78;;;-4.12;100.00
21640;BME280;10981;45.462;10.974;2024-01-30T03:34:25;102637.53;;;-4.08;100.00
21640;BME280;10981;45.462;10.974;2024-01-30T03:36:54;102639.09;;;-4.22;100.00
21640;BME280;10981;45.462;10.974;2024-01-30T03:39:22;102639.09;;;-4.21;100.00
21640;BME280;10981;45.462;10.974;2024-01-30T03:41:51;102636.44;;;-4.29;100.00
21640;BME280;10981;45.462;10.974;2024-01-30T03:44:19;102644.13;;;-4.29;100.00
21640;BME280;10981;45.462;10.974;2024-01-30T03:46:47;102651.78;;;-4.27;100.00
21640;BME280;10981;45.462;10.974;2024-01-30T03:49:15;102645.09;;;-4.17;100.00
21640;BME280;10981;45.462;10.974;2024-01-30T03:51:43;102645.97;;;-4.15;100.00
21640;BME280;10981;45.462;10.974;2024-01-30T03:54:12;102646.78;;;-4.18;100.00
21640;BME280;10981;45.462;10.974;2024-01-30T03:56:40;102644.16;;;-4.24;100.00
21640;BME280;10981;45.462;10.974;2024-01-30T03:59:09;102645.78;;;-4.31;100.00
21640;BME280;10981;45.462;10.974;2024-01-30T04:01:37;102644.94;;;-4.30;100.00
21640;BME280;10981;45.462;10.974;2024-01-30T04:04:05;102649.25;;;-4.27;100.00
21640;BME280;10981;45.462;10.974;2024-01-30T04:06:34;102646.59;;;-4.33;100.00
21640;BME280;10981;45.462;10.974;2024-01-30T04:09:02;102645.59;;;-4.45;100.00
21640;BME280;10981;45.462;10.974;2024-01-30T04:11:31;102640.47;;;-4.46;100.00
21640;BME280;10981;45.462;10.974;2024-01-30T04:13:59;102641.22;;;-4.53;100.00
21640;BME280;10981;45.462;10.974;2024-01-30T04:16:28;102635.25;;;-4.54;100.00
21640;BME280;10981;45.462;10.974;2024-01-30T04:18:56;102635.16;;;-4.62;100.00
21640;BME280;10981;45.462;10.974;2024-01-30T04:21:25;102642.63;;;-4.74;100.00
21640;BME280;10981;45.462;10.974;2024-01-30T04:23:53;102637.41;;;-4.82;100.00
21640;BME280;10981;45.462;10.974;2024-01-30T04:26:22;102636.41;;;-4.90;100.00
21640;BME280;10981;45.462;10.974;2024-01-30T04:28:50;102637.22;;;-4.94;100.00
21640;BME280;10981;45.462;10.974;2024-01-30T04:31:18;102639.63;;;-5.05;100.00
21640;BME280;10981;45.462;10.974;2024-01-30T04:33:46;102632.69;;;-5.11;100.00
21640;BME280;10981;45.462;10.974;2024-01-30T04:36:15;102639.41;;;-5.17;100.00
21640;BME280;10981;45.462;10.974;2024-01-30T04:38:43;102631.84;;;-5.11;100.00
21640;BME280;10981;45.462;10.974;2024-01-30T04:41:11;102627.56;;;-5.14;100.00
21640;BME280;10981;45.462;10.974;2024-01-30T04:43:39;102638.75;;;-5.05;100.00
21640;BME280;10981;45.462;10.974;2024-01-30T04:46:07;102636.13;;;-5.10;100.00
21640;BME280;10981;45.462;10.974;2024-01-30T04:48:36;102642.84;;;-5.15;100.00
21640;BME280;10981;45.462;10.974;2024-01-30T04:51:04;102642.88;;;-5.14;100.00
21640;BME280;10981;45.462;10.974;2024-01-30T04:53:32;102641.97;;;-5.17;100.00
21640;BME280;10981;45.462;10.974;2024-01-30T04:56:00;102642.00;;;-5.14;100.00
21640;BME280;10981;45.462;10.974;2024-01-30T04:58:29;102641.34;;;-5.04;100.00
21640;BME280;10981;45.462;10.974;2024-01-30T05:00:57;102642.28;;;-4.99;100.00
21640;BME280;10981;45.462;10.974;2024-01-30T05:03:26;102634.66;;;-4.94;100.00
21640;BME280;10981;45.462;10.974;2024-01-30T05:05:54;102639.88;;;-4.86;100.00
21640;BME280;10981;45.462;10.974;2024-01-30T05:08:22;102641.72;;;-4.76;100.00
21640;BME280;10981;45.462;10.974;2024-01-30T05:10:51;102630.78;;;-4.70;100.00
21640;BME280;10981;45.462;10.974;2024-01-30T05:13:19;102635.13;;;-4.63;100.00
21640;BME280;10981;45.462;10.974;2024-01-30T05:15:47;102638.53;;;-4.63;100.00
21640;BME280;10981;45.462;10.974;2024-01-30T05:18:16;102633.44;;;-4.63;100.00
21640;BME280;10981;45.462;10.974;2024-01-30T05:20:44;102634.16;;;-4.70;100.00
21640;BME280;10981;45.462;10.974;2024-01-30T05:23:12;102642.72;;;-4.69;100.00
21640;BME280;10981;45.462;10.974;2024-01-30T05:25:40;102641.88;;;-4.68;100.00
21640;BME280;10981;45.462;10.974;2024-01-30T05:28:09;102640.19;;;-4.66;100.00
21640;BME280;10981;45.462;10.974;2024-01-30T05:30:37;102636.78;;;-4.67;100.00
21640;BME280;10981;45.462;10.974;2024-01-30T05:33:05;102639.34;;;-4.67;100.00
21640;BME280;10981;45.462;10.974;2024-01-30T05:35:33;102645.28;;;-4.68;100.00
21640;BME280;10981;45.462;10.974;2024-01-30T05:38:02;102640.19;;;-4.66;100.00
21640;BME280;10981;45.462;10.974;2024-01-30T05:40:30;102640.28;;;-4.60;100.00
21640;BME280;10981;45.462;10.974;2024-01-30T05:42:58;102647.13;;;-4.56;100.00
21640;BME280;10981;45.462;10.974;2024-01-30T05:45:29;102647.22;;;-4.51;100.00
21640;BME280;10981;45.462;10.974;2024-01-30T05:47:57;102653.22;;;-4.48;100.00
21640;BME280;10981;45.462;10.974;2024-01-30T05:50:25;102650.72;;;-4.43;100.00
21640;BME280;10981;45.462;10.974;2024-01-30T05:52:54;102647.34;;;-4.40;100.00
21640;BME280;10981;45.462;10.974;2024-01-30T05:55:22;102648.97;;;-4.47;100.00
21640;BME280;10981;45.462;10.974;2024-01-30T05:57:51;102642.13;;;-4.50;100.00
21640;BME280;10981;45.462;10.974;2024-01-30T06:00:20;102647.22;;;-4.50;100.00
21640;BME280;10981;45.462;10.974;2024-01-30T06:02:49;102644.66;;;-4.51;100.00
21640;BME280;10981;45.462;10.974;2024-01-30T06:05:17;102644.72;;;-4.47;100.00
21640;BME280;10981;45.462;10.974;2024-01-30T06:07:45;102646.47;;;-4.43;100.00
21640;BME280;10981;45.462;10.974;2024-01-30T06:10:14;102649.13;;;-4.36;100.00
21640;BME280;10981;45.462;10.974;2024-01-30T06:12:42;102651.72;;;-4.33;100.00
21640;BME280;10981;45.462;10.974;2024-01-30T06:15:10;102645.78;;;-4.31;100.00
21640;BME280;10981;45.462;10.974;2024-01-30T06:17:40;102651.72;;;-4.33;100.00
21640;BME280;10981;45.462;10.974;2024-01-30T06:20:08;102653.34;;;-4.40;100.00
21640;BME280;10981;45.462;10.974;2024-01-30T06:22:37;102649.03;;;-4.44;100.00
21640;BME280;10981;45.462;10.974;2024-01-30T06:25:05;102649.78;;;-4.48;100.00
21640;BME280;10981;45.462;10.974;2024-01-30T06:27:33;102643.81;;;-4.50;100.00
21640;BME280;10981;45.462;10.974;2024-01-30T06:30:02;102658.31;;;-4.49;100.00
21640;BME280;10981;45.462;10.974;2024-01-30T06:32:30;102666.00;;;-4.49;100.00
21640;BME280;10981;45.462;10.974;2024-01-30T06:35:02;102666.84;;;-4.47;100.00
21640;BME280;10981;45.462;10.974;2024-01-30T06:37:31;102665.19;;;-4.44;100.00
21640;BME280;10981;45.462;10.974;2024-01-30T06:39:59;102671.16;;;-4.43;100.00
21640;BME280;10981;45.462;10.974;2024-01-30T06:42:27;102678.81;;;-4.43;100.00
21640;BME280;10981;45.462;10.974;2024-01-30T06:44:56;102674.59;;;-4.43;100.00
21640;BME280;10981;45.462;10.974;2024-01-30T06:47:24;102673.78;;;-4.40;100.00
21640;BME280;10981;45.462;10.974;2024-01-30T06:49:52;102673.81;;;-4.35;100.00
21640;BME280;10981;45.462;10.974;2024-01-30T06:52:21;102673.16;;;-4.22;100.00
21640;BME280;10981;45.462;10.974;2024-01-30T06:54:49;102674.16;;;-4.11;100.00
21640;BME280;10981;45.462;10.974;2024-01-30T06:57:17;102671.69;;;-4.04;100.00
21640;BME280;10981;45.462;10.974;2024-01-30T06:59:45;102673.44;;;-3.99;100.00
21640;BME280;10981;45.462;10.974;2024-01-30T07:02:13;102672.69;;;-3.90;100.00
21640;BME280;10981;45.462;10.974;2024-01-30T07:04:42;102680.53;;;-3.78;100.00
21640;BME280;10981;45.462;10.974;2024-01-30T07:07:14;102674.50;;;-3.83;100.00
21640;BME280;10981;45.462;10.974;2024-01-30T07:09:43;102677.72;;;-3.99;100.00
21640;BME280;10981;45.462;10.974;2024-01-30T07:12:12;102681.16;;;-3.96;100.00
21640;BME280;10981;45.462;10.974;2024-01-30T07:14:40;102676.91;;;-3.95;100.00
21640;BME280;10981;45.462;10.974;2024-01-30T07:17:08;102682.84;;;-3.96;100.00
21640;BME280;10981;45.462;10.974;2024-01-30T07:19:36;102682.03;;;-3.94;100.00
21640;BME280;10981;45.462;10.974;2024-01-30T07:22:05;102697.38;;;-3.92;100.00
21640;BME280;10981;45.462;10.974;2024-01-30T07:24:33;102696.59;;;-3.88;100.00
21640;BME280;10981;45.462;10.974;2024-01-30T07:27:02;102692.41;;;-3.81;100.00
21640;BME280;10981;45.462;10.974;2024-01-30T07:29:30;102694.22;;;-3.71;100.00
21640;BME280;10981;45.462;10.974;2024-01-30T07:31:58;102690.31;;;-3.38;100.00
21640;BME280;10981;45.462;10.974;2024-01-30T07:34:27;102697.50;;;-3.00;100.00
21640;BME280;10981;45.462;10.974;2024-01-30T07:36:56;102691.59;;;-2.89;100.00
21640;BME280;10981;45.462;10.974;2024-01-30T07:39:24;102689.16;;;-2.74;100.00
21640;BME280;10981;45.462;10.974;2024-01-30T07:41:53;102691.69;;;-2.78;100.00
21640;BME280;10981;45.462;10.974;2024-01-30T07:44:21;102691.75;;;-2.72;100.00
21640;BME280;10981;45.462;10.974;2024-01-30T07:46:50;102698.59;;;-2.68;100.00
21640;BME280;10981;45.462;10.974;2024-01-30T07:49:18;102698.75;;;-2.43;100.00
21640;BME280;10981;45.462;10.974;2024-01-30T07:51:46;102701.41;;;-2.31;100.00
21640;BME280;10981;45.462;10.974;2024-01-30T07:54:14;102706.63;;;-2.11;100.00
21640;BME280;10981;45.462;10.974;2024-01-30T07:56:43;102710.97;;;-1.91;100.00
21640;BME280;10981;45.462;10.974;2024-01-30T07:59:12;102713.59;;;-1.85;100.00
21640;BME280;10981;45.462;10.974;2024-01-30T08:01:40;102714.56;;;-1.46;100.00
21640;BME280;10981;45.462;10.974;2024-01-30T08:04:08;102717.22;;;-0.69;100.00
21640;BME280;10981;45.462;10.974;2024-01-30T08:06:37;102717.91;;;0.02;100.00
21640;BME280;10981;45.462;10.974;2024-01-30T08:09:08;102718.50;;;0.62;100.00
21640;BME280;10981;45.462;10.974;2024-01-30T08:11:36;102719.25;;;0.72;100.00
21640;BME280;10981;45.462;10.974;2024-01-30T08:14:05;102717.66;;;0.49;100.00
21640;BME280;10981;45.462;10.974;2024-01-30T08:16:33;102717.84;;;0.12;100.00
21640;BME280;10981;45.462;10.974;2024-01-30T08:19:02;102714.44;;;0.09;100.00
21640;BME280;10981;45.462;10.974;2024-01-30T08:21:31;102717.03;;;0.06;100.00
21640;BME280;10981;45.462;10.974;2024-01-30T08:24:07;102718.75;;;0.04;100.00
21640;BME280;10981;45.462;10.974;2024-01-30T08:26:35;102717.94;;;0.00;100.00
21640;BME280;10981;45.462;10.974;2024-01-30T08:29:03;102717.88;;;0.05;100.00
21640;BME280;10981;45.462;10.974;2024-01-30T08:31:32;102714.44;;;0.10;100.00
21640;BME280;10981;45.462;10.974;2024-01-30T08:34:00;102708.41;;;0.16;100.00
21640;BME280;10981;45.462;10.974;2024-01-30T08:36:29;102712.72;;;0.12;100.00
21640;BME280;10981;45.462;10.974;2024-01-30T08:38:57;102725.59;;;0.05;100.00
21640;BME280;10981;45.462;10.974;2024-01-30T08:41:30;102711.84;;;0.15;100.00
21640;BME280;10981;45.462;10.974;2024-01-30T08:43:59;102712.63;;;0.28;100.00
21640;BME280;10981;45.462;10.974;2024-01-30T08:46:27;102710.94;;;0.28;100.00
21640;BME280;10981;45.462;10.974;2024-01-30T08:48:55;102716.03;;;0.41;100.00
21640;BME280;10981;45.462;10.974;2024-01-30T08:51:24;102715.97;;;0.52;100.00
21640;BME280;10981;45.462;10.974;2024-01-30T08:53:52;102720.22;;;0.54;100.00
21640;BME280;10981;45.462;10.974;2024-01-30T08:56:22;102719.31;;;0.63;100.00
21640;BME280;10981;45.462;10.974;2024-01-30T08:58:50;102717.56;;;0.68;100.00
21640;BME280;10981;45.462;10.974;2024-01-30T09:01:18;102719.28;;;0.69;100.00
21640;BME280;10981;45.462;10.974;2024-01-30T09:03:46;102716.75;;;0.63;100.00
21640;BME280;10981;45.462;10.974;2024-01-30T09:06:15;102711.47;;;0.83;100.00
21640;BME280;10981;45.462;10.974;2024-01-30T09:08:43;102712.28;;;0.85;100.00
21640;BME280;10981;45.462;10.974;2024-01-30T09:11:13;102717.41;;;0.91;100.00
21640;BME280;10981;45.462;10.974;2024-01-30T09:13:41;102711.34;;;0.95;100.00
21640;BME280;10981;45.462;10.974;2024-01-30T09:16:10;102717.25;;;1.13;100.00
21640;BME280;10981;45.462;10.974;2024-01-30T09:18:39;102720.56;;;1.27;100.00
21640;BME280;10981;45.462;10.974;2024-01-30T09:21:07;102723.06;;;1.37;100.00
21640;BME280;10981;45.462;10.974;2024-01-30T09:23:35;102719.44;;;1.55;100.00
21640;BME280;10981;45.462;10.974;2024-01-30T09:26:03;102720.19;;;1.68;100.00
21640;BME280;10981;45.462;10.974;2024-01-30T09:28:31;102725.31;;;1.72;100.00
21640;BME280;10981;45.462;10.974;2024-01-30T09:31:00;102726.88;;;1.84;100.00
21640;BME280;10981;45.462;10.974;2024-01-30T09:33:28;102725.94;;;1.91;100.00
21640;BME280;10981;45.462;10.974;2024-01-30T09:35:56;102729.28;;;2.03;100.00
21640;BME280;10981;45.462;10.974;2024-01-30T09:38:25;102731.72;;;2.13;100.00
21640;BME280;10981;45.462;10.974;2024-01-30T09:40:54;102740.28;;;2.17;100.00
21640;BME280;10981;45.462;10.974;2024-01-30T09:43:24;102737.75;;;2.14;100.00
21640;BME280;10981;45.462;10.974;2024-01-30T09:45:54;102741.22;;;2.11;100.00
21640;BME280;10981;45.462;10.974;2024-01-30T09:48:25;102743.00;;;2.06;100.00
21640;BME280;10981;45.462;10.974;2024-01-30T09:50:55;102746.50;;;2.01;100.00
21640;BME280;10981;45.462;10.974;2024-01-30T09:53:25;102746.53;;;1.98;100.00
21640;BME280;10981;45.462;10.974;2024-01-30T09:55:54;102735.31;;;2.00;100.00
21640;BME280;10981;45.462;10.974;2024-01-30T09:58:22;102739.63;;;2.00;100.00
21640;BME280;10981;45.462;10.974;2024-01-30T10:00:50;102744.72;;;2.04;100.00
21640;BME280;10981;45.462;10.974;2024-01-30T10:03:19;102738.63;;;2.10;100.00
21640;BME280;10981;45.462;10.974;2024-01-30T10:05:53;102730.94;;;2.07;100.00
21640;BME280;10981;45.462;10.974;2024-01-30T10:08:22;102743.72;;;2.18;100.00
21640;BME280;10981;45.462;10.974;2024-01-30T10:10:51;102728.16;;;2.22;100.00
21640;BME280;10981;45.462;10.974;2024-01-30T10:13:19;102728.94;;;2.29;100.00
21640;BME280;10981;45.462;10.974;2024-01-30T10:15:49;102729.72;;;2.36;100.00
21640;BME280;10981;45.462;10.974;2024-01-30T10:18:17;102722.75;;;2.41;100.00
21640;BME280;10981;45.462;10.974;2024-01-30T10:20:46;102726.06;;;2.52;100.00
21640;BME280;10981;45.462;10.974;2024-01-30T10:23:14;102719.88;;;2.63;100.00
21640;BME280;10981;45.462;10.974;2024-01-30T10:25:43;102726.66;;;2.70;100.00
21640;BME280;10981;45.462;10.974;2024-01-30T10:28:12;102717.13;;;2.75;100.00
21640;BME280;10981;45.462;10.974;2024-01-30T10:30:41;102720.44;;;2.83;100.00
21640;BME280;10981;45.462;10.974;2024-01-30T10:33:09;102724.56;;;2.95;100.00
21640;BME280;10981;45.462;10.974;2024-01-30T10:35:37;102712.41;;;3.00;100.00
21640;BME280;10981;45.462;10.974;2024-01-30T10:38:06;102715.81;;;3.02;100.00
21640;BME280;10981;45.462;10.974;2024-01-30T10:40:38;102714.03;;;3.06;100.00
21640;BME280;10981;45.462;10.974;2024-01-30T10:43:09;102713.94;;;3.12;100.00
21640;BME280;10981;45.462;10.974;2024-01-30T10:45:40;102705.94;;;3.27;100.00
21640;BME280;10981;45.462;10.974;2024-01-30T10:48:14;102698.75;;;3.42;100.00
21640;BME280;10981;45.462;10.974;2024-01-30T10:50:46;102696.94;;;3.47;100.00
21640;BME280;10981;45.462;10.974;2024-01-30T10:53:27;102684.72;;;3.55;100.00
21640;BME280;10981;45.462;10.974;2024-01-30T10:56:00;102686.38;;;3.59;100.00
21640;BME280;10981;45.462;10.974;2024-01-30T10:58:30;102678.53;;;3.64;100.00
21640;BME280;10981;45.462;10.974;2024-01-30T11:00:59;102671.41;;;3.74;100.00
21640;BME280;10981;45.462;10.974;2024-01-30T11:03:28;102669.34;;;3.91;100.00
21640;BME280;10981;45.462;10.974;2024-01-30T11:06:00;102669.06;;;4.05;100.00
21640;BME280;10981;45.462;10.974;2024-01-30T11:08:31;102656.81;;;4.14;100.00
21640;BME280;10981;45.462;10.974;2024-01-30T11:11:00;102652.13;;;4.30;100.00
21640;BME280;10981;45.462;10.974;2024-01-30T11:13:30;102648.34;;;4.45;100.00
21640;BME280;10981;45.462;10.974;2024-01-30T11:16:05;102643.66;;;4.59;100.00
21640;BME280;10981;45.462;10.974;2024-01-30T11:18:36;102644.22;;;4.72;100.00
21640;BME280;10981;45.462;10.974;2024-01-30T11:21:05;102643.03;;;4.85;100.00
21640;BME280;10981;45.462;10.974;2024-01-30T11:23:34;102641.06;;;4.95;100.00
21640;BME280;10981;45.462;10.974;2024-01-30T11:26:05;102631.28;;;5.05;100.00
21640;BME280;10981;45.462;10.974;2024-01-30T11:28:34;102626.72;;;5.15;100.00
21640;BME280;10981;45.462;10.974;2024-01-30T11:31:06;102628.94;;;5.29;100.00
21640;BME280;10981;45.462;10.974;2024-01-30T11:33:35;102629.41;;;5.43;100.00
21640;BME280;10981;45.462;10.974;2024-01-30T11:36:04;102620.50;;;5.52;100.00
21640;BME280;10981;45.462;10.974;2024-01-30T11:38:35;102620.88;;;5.69;100.00
21640;BME280;10981;45.462;10.974;2024-01-30T11:41:04;102616.34;;;5.76;100.00
21640;BME280;10981;45.462;10.974;2024-01-30T11:43:32;102607.44;;;5.85;100.00
21640;BME280;10981;45.462;10.974;2024-01-30T11:46:03;102617.47;;;5.97;100.00
21640;BME280;10981;45.462;10.974;2024-01-30T11:48:33;102614.56;;;6.10;100.00
21640;BME280;10981;45.462;10.974;2024-01-30T11:51:02;102610.66;;;6.23;100.00
21640;BME280;10981;45.462;10.974;2024-01-30T11:53:30;102617.97;;;6.38;100.00
21640;BME280;10981;45.462;10.974;2024-01-30T11:55:58;102611.72;;;6.71;100.00
21640;BME280;10981;45.462;10.974;2024-01-30T11:58:27;102611.38;;;7.07;100.00
21640;BME280;10981;45.462;10.974;2024-01-30T12:00:58;102611.31;;;7.58;100.00
21640;BME280;10981;45.462;10.974;2024-01-30T12:03:28;102594.13;;;7.98;100.00
21640;BME280;10981;45.462;10.974;2024-01-30T12:05:59;102604.34;;;8.26;100.00
21640;BME280;10981;45.462;10.974;2024-01-30T12:08:28;102588.00;;;8.43;100.00
21640;BME280;10981;45.462;10.974;2024-01-30T12:10:57;102585.31;;;8.45;100.00
21640;BME280;10981;45.462;10.974;2024-01-30T12:13:27;102585.84;;;8.55;100.00
21640;BME280;10981;45.462;10.974;2024-01-30T12:16:01;102577.19;;;8.75;100.00
21640;BME280;10981;45.462;10.974;2024-01-30T12:18:29;102570.72;;;8.63;100.00
21640;BME280;10981;45.462;10.974;2024-01-30T12:21:01;102566.75;;;8.75;100.00
21640;BME280;10981;45.462;10.974;2024-01-30T12:23:30;102556.34;;;8.94;100.00
21640;BME280;10981;45.462;10.974;2024-01-30T12:25:58;102551.25;;;9.11;100.00
21640;BME280;10981;45.462;10.974;2024-01-30T12:28:27;102548.66;;;9.30;100.00
21640;BME280;10981;45.462;10.974;2024-01-30T12:31:02;102546.66;;;9.36;100.00
21640;BME280;10981;45.462;10.974;2024-01-30T12:33:31;102538.66;;;9.20;100.00
21640;BME280;10981;45.462;10.974;2024-01-30T12:36:03;102536.75;;;9.04;100.00
21640;BME280;10981;45.462;10.974;2024-01-30T12:38:32;102533.59;;;9.16;100.00
21640;BME280;10981;45.462;10.974;2024-01-30T12:41:01;102535.63;;;9.29;100.00